Time;durP1;ratioP1;P1;durP2;ratioP2;P2;SDS_P1;SDS_P2;PMS_P1;PMS_P2;Temp;Humidity;BMP_temperature;BMP_pressure;BME280_temperature;BME280_humidity;BME280_pressure;Samples;Min_cycle;Max_cycle;Signal;HPM_P1;HPM_P2
2022/06/09 00:04:09;;;;;;;2.92;0.90;;;19.20;70.40;;;;;;5130326;27;20395;-69
2022/06/09 00:06:43;;;;;;;2.97;0.95;;;19.10;70.40;;;;;;5128979;28;20043;-69
2022/06/09 00:09:09;;;;;;;2.38;0.90;;;19.10;70.40;;;;;;5130302;27;20436;-69
2022/06/09 00:11:44;;;;;;;2.20;1.10;;;19.10;71.10;;;;;;5128863;28;20040;-69
2022/06/09 00:14:09;;;;;;;2.38;0.77;;;19.10;70.40;;;;;;5128858;28;20032;-69
2022/06/09 00:16:36;;;;;;;4.80;1.10;;;19.10;70.40;;;;;;5128708;28;20112;-69
2022/06/09 00:19:05;;;;;;;3.63;1.13;;;19.10;70.40;;;;;;5129011;28;20402;-69
2022/06/09 00:21:31;;;;;;;3.28;1.00;;;19.10;70.40;;;;;;5128570;27;20487;-69
2022/06/09 00:24:01;;;;;;;2.03;0.85;;;19.10;70.40;;;;;;5128621;28;20043;-69
2022/06/09 00:26:27;;;;;;;2.03;0.98;;;19.10;70.40;;;;;;5129901;27;20084;-69
2022/06/09 00:28:56;;;;;;;2.40;0.70;;;19.10;70.40;;;;;;5128810;28;20479;-69
2022/06/09 00:31:22;;;;;;;2.83;0.88;;;19.10;70.40;;;;;;5129719;27;20407;-69
2022/06/09 00:33:48;;;;;;;3.15;0.85;;;19.10;70.40;;;;;;5128761;28;20264;-68
2022/06/09 00:36:14;;;;;;;2.90;0.85;;;19.10;70.40;;;;;;5128545;27;20053;-69
2022/06/09 00:38:43;;;;;;;4.20;1.42;;;19.00;70.40;;;;;;5128593;28;20082;-69
2022/06/09 00:41:12;;;;;;;3.88;1.17;;;19.00;70.30;;;;;;5145473;27;20047;-69
2022/06/09 00:43:41;;;;;;;3.22;0.90;;;19.00;70.30;;;;;;5128124;28;20399;-69
2022/06/09 00:49:01;;;;;;;2.80;1.27;;;19.00;70.30;;;;;;5153077;27;1160126;-69
2022/06/09 00:51:35;;;;;;;1.80;0.80;;;19.00;70.30;;;;;;5153214;27;20272;-69
2022/06/09 00:56:50;;;;;;;3.00;0.73;;;19.00;70.30;;;;;;5089392;27;20356;-69
2022/06/09 00:59:20;;;;;;;4.13;1.10;;;19.00;70.40;;;;;;5088338;28;20442;-69
2022/06/09 01:01:45;;;;;;;2.15;0.68;;;19.00;70.30;;;;;;5088364;28;20484;-69
2022/06/09 01:04:14;;;;;;;3.38;0.88;;;19.00;70.30;;;;;;5088263;28;20067;-69
2022/06/09 01:06:47;;;;;;;4.10;0.98;;;19.00;70.30;;;;;;5089291;28;20036;-69
2022/06/09 01:09:16;;;;;;;2.75;1.10;;;19.00;70.30;;;;;;5087817;28;20124;-69
2022/06/09 01:11:42;;;;;;;2.17;0.68;;;18.90;70.20;;;;;;5089559;28;20445;-69
2022/06/09 01:14:13;;;;;;;2.72;0.82;;;19.00;70.30;;;;;;5087843;28;20028;-69
2022/06/09 01:19:54;;;;;;;3.42;1.13;;;19.00;70.30;;;;;;5150973;27;20263;-69
2022/06/09 01:31:06;;;;;;;2.80;0.88;;;18.90;70.20;;;;;;5130331;27;20407;-68
2022/06/09 01:36:25;;;;;;;4.40;1.00;;;18.90;70.10;;;;;;5130311;27;20411;-69
2022/06/09 01:38:57;;;;;;;2.28;0.70;;;18.90;70.10;;;;;;5128929;27;20563;-69
2022/06/09 01:41:25;;;;;;;4.40;0.88;;;18.90;70.10;;;;;;5129242;28;20051;-69
2022/06/09 01:43:54;;;;;;;3.05;0.88;;;18.80;70.10;;;;;;5128898;28;20043;-69
2022/06/09 01:49:11;;;;;;;3.35;0.90;;;18.80;70.00;;;;;;5130190;27;20715;-69
2022/06/09 01:51:41;;;;;;;2.55;0.63;;;18.80;70.00;;;;;;5130285;27;20482;-69
2022/06/09 01:54:15;;;;;;;3.57;0.80;;;18.80;70.00;;;;;;5129090;28;20050;-69
2022/06/09 01:56:53;;;;;;;5.85;0.90;;;18.80;70.00;;;;;;5146375;27;20117;-69
2022/06/09 01:59:25;;;;;;;2.40;1.05;;;18.80;70.00;;;;;;5129053;28;20047;-69
2022/06/09 02:04:48;;;;;;;2.55;0.80;;;18.80;70.00;;;;;;5130204;27;20484;-69
2022/06/09 02:07:15;;;;;;;2.13;0.73;;;18.80;70.00;;;;;;5112142;28;20070;-69
2022/06/09 02:09:41;;;;;;;3.53;0.95;;;18.80;70.00;;;;;;5111834;28;20110;-69
2022/06/09 02:12:10;;;;;;;2.83;0.63;;;18.80;70.00;;;;;;5111721;28;20167;-69
2022/06/09 02:14:38;;;;;;;2.92;0.80;;;18.80;70.00;;;;;;5111727;28;20478;-69
2022/06/09 02:17:07;;;;;;;1.88;0.88;;;18.70;69.90;;;;;;5111964;28;20077;-69
2022/06/09 02:19:33;;;;;;;3.80;1.10;;;18.70;69.90;;;;;;5111529;28;20050;-69
2022/06/09 02:21:59;;;;;;;5.22;0.70;;;18.70;69.90;;;;;;5111850;28;20121;-69
2022/06/09 02:24:25;;;;;;;3.17;0.82;;;18.70;69.90;;;;;;5129894;28;20067;-69
2022/06/09 02:26:51;;;;;;;3.53;1.13;;;18.80;69.90;;;;;;5111680;28;20424;-69
2022/06/09 02:29:16;;;;;;;2.25;0.77;;;18.70;69.80;;;;;;5111748;28;20391;-69
2022/06/09 02:31:42;;;;;;;3.30;0.88;;;18.70;69.90;;;;;;5111336;28;20050;-69
2022/06/09 02:34:09;;;;;;;5.32;1.02;;;18.70;69.80;;;;;;5111270;28;20035;-69
2022/06/09 02:36:35;;;;;;;2.33;0.70;;;18.70;69.80;;;;;;5111344;28;20122;-69
2022/06/09 02:39:01;;;;;;;2.90;0.88;;;18.70;69.80;;;;;;5111348;28;20501;-69
2022/06/09 02:41:27;;;;;;;3.33;0.95;;;18.70;69.80;;;;;;5111112;28;20039;-69
2022/06/09 02:43:52;;;;;;;2.40;0.88;;;18.70;69.80;;;;;;5111104;28;20095;-69
2022/06/09 02:46:18;;;;;;;4.38;1.40;;;18.70;69.80;;;;;;5111340;28;20386;-69
2022/06/09 02:48:46;;;;;;;4.13;1.08;;;18.60;69.70;;;;;;5111347;28;20043;-69
2022/06/09 02:51:16;;;;;;;4.53;0.82;;;18.60;69.70;;;;;;5111010;28;20084;-69
2022/06/09 02:53:42;;;;;;;5.47;1.03;;;18.70;69.70;;;;;;5111117;28;20111;-69
2022/06/09 02:56:08;;;;;;;2.47;0.60;;;18.60;69.70;;;;;;5110876;28;20102;-69
2022/06/09 02:58:33;;;;;;;2.25;0.98;;;18.60;70.50;;;;;;5111142;28;20583;-69
2022/06/09 03:00:59;;;;;;;2.70;1.00;;;18.60;69.60;;;;;;5110840;28;20050;-69
2022/06/09 03:03:24;;;;;;;3.35;1.00;;;18.60;69.70;;;;;;5110502;28;20039;-69
2022/06/09 03:05:50;;;;;;;4.70;0.85;;;18.60;69.60;;;;;;5111164;28;20042;-69
2022/06/09 03:08:16;;;;;;;5.30;1.00;;;18.60;69.60;;;;;;5110887;28;20390;-69
2022/06/09 03:10:41;;;;;;;2.88;1.17;;;18.60;69.60;;;;;;5110735;28;20194;-69
2022/06/09 03:13:07;;;;;;;4.13;1.10;;;18.60;69.70;;;;;;5110786;28;20116;-69
2022/06/09 03:15:34;;;;;;;3.60;0.80;;;18.60;69.60;;;;;;5117853;28;20158;-69
2022/06/09 03:17:59;;;;;;;3.20;0.98;;;18.60;69.60;;;;;;5096910;28;20044;-69
2022/06/09 03:20:28;;;;;;;2.58;0.80;;;18.60;69.60;;;;;;5096998;28;20050;-69
2022/06/09 03:22:54;;;;;;;4.13;0.98;;;18.60;69.60;;;;;;5096807;28;20048;-69
2022/06/09 03:25:20;;;;;;;3.42;1.00;;;18.50;69.50;;;;;;5115147;28;20031;-69
2022/06/09 03:27:46;;;;;;;5.03;1.20;;;18.50;69.50;;;;;;5114883;28;20049;-70
2022/06/09 03:30:12;;;;;;;2.55;1.00;;;18.60;69.60;;;;;;5096949;28;20031;-69
2022/06/09 03:32:38;;;;;;;2.63;0.70;;;18.50;69.50;;;;;;5096869;28;20499;-69
2022/06/09 03:35:08;;;;;;;3.08;0.90;;;18.50;69.50;;;;;;5096687;28;20081;-69
2022/06/09 03:37:34;;;;;;;3.40;1.08;;;18.50;69.50;;;;;;5096676;28;20130;-69
2022/06/09 03:39:59;;;;;;;2.60;0.63;;;18.50;69.50;;;;;;5096824;28;20044;-69
2022/06/09 03:42:25;;;;;;;3.88;0.68;;;18.50;69.50;;;;;;5114517;28;20065;-69
2022/06/09 03:44:50;;;;;;;2.63;0.98;;;18.50;69.50;;;;;;5096694;28;20087;-69
2022/06/09 03:47:16;;;;;;;2.25;0.98;;;18.50;69.40;;;;;;5096720;28;20043;-69
2022/06/09 03:49:42;;;;;;;3.85;1.08;;;18.50;69.40;;;;;;5096611;28;20034;-69
2022/06/09 03:52:07;;;;;;;3.70;0.88;;;18.50;69.40;;;;;;5114549;28;20392;-69
2022/06/09 03:54:33;;;;;;;1.83;0.60;;;18.50;69.40;;;;;;5096618;28;20439;-69
2022/06/09 03:56:59;;;;;;;3.22;0.90;;;18.50;69.40;;;;;;5114480;28;20479;-69
2022/06/09 03:59:24;;;;;;;4.07;1.00;;;18.50;69.40;;;;;;5096069;28;20145;-69
2022/06/09 04:01:52;;;;;;;2.78;0.80;;;18.50;69.40;;;;;;5114569;28;20080;-69
2022/06/09 04:04:18;;;;;;;3.08;1.15;;;18.50;69.40;;;;;;5113996;28;20136;-69
2022/06/09 04:06:44;;;;;;;4.40;1.55;;;18.50;69.40;;;;;;5096857;28;20065;-68
2022/06/09 04:09:11;;;;;;;2.75;0.93;;;18.50;69.30;;;;;;5095980;28;20039;-69
2022/06/09 04:11:36;;;;;;;4.00;1.13;;;18.50;69.30;;;;;;5095974;28;20043;-69
2022/06/09 04:14:02;;;;;;;3.13;0.88;;;18.50;69.30;;;;;;5095898;28;20031;-69
2022/06/09 04:16:34;;;;;;;2.97;0.80;;;18.50;69.30;;;;;;5095859;28;20039;-69
2022/06/09 04:19:03;;;;;;;3.90;1.10;;;18.50;69.20;;;;;;5113980;28;20411;-69
2022/06/09 04:21:34;;;;;;;3.53;1.08;;;18.50;69.20;;;;;;5095758;28;20112;-69
2022/06/09 04:24:00;;;;;;;3.22;0.80;;;18.50;69.20;;;;;;5095552;28;20047;-69
2022/06/09 04:26:28;;;;;;;3.55;0.85;;;18.50;69.20;;;;;;5112849;28;20043;-69
2022/06/09 04:28:54;;;;;;;2.75;0.80;;;18.50;69.20;;;;;;5095590;28;20503;-69
2022/06/09 04:31:20;;;;;;;2.80;1.05;;;18.50;69.20;;;;;;5095722;28;20429;-69
2022/06/09 04:33:47;;;;;;;3.15;0.90;;;18.50;69.10;;;;;;5113784;28;20108;-69
2022/06/09 04:36:13;;;;;;;2.75;0.75;;;18.50;69.10;;;;;;5095318;28;20047;-69
2022/06/09 04:38:39;;;;;;;4.82;1.25;;;18.50;69.10;;;;;;5095499;28;20084;-69
2022/06/09 04:41:09;;;;;;;4.53;0.70;;;18.50;69.10;;;;;;5095236;28;20043;-69
2022/06/09 04:43:37;;;;;;;3.13;0.68;;;18.50;69.00;;;;;;5095050;28;20039;-69
2022/06/09 04:46:04;;;;;;;4.07;0.95;;;18.50;69.00;;;;;;5113424;28;20110;-70
2022/06/09 04:48:30;;;;;;;3.38;0.80;;;18.50;68.90;;;;;;5095126;28;20057;-69
2022/06/09 04:50:56;;;;;;;3.78;0.70;;;18.50;68.90;;;;;;5095098;28;20515;-69
2022/06/09 04:53:22;;;;;;;3.70;0.80;;;18.50;68.90;;;;;;5095157;28;20047;-69
2022/06/09 04:55:49;;;;;;;1.95;0.70;;;18.50;68.90;;;;;;5095266;28;20047;-69
2022/06/09 04:58:15;;;;;;;1.52;0.52;;;18.50;68.90;;;;;;5095234;28;20375;-69
2022/06/09 05:00:41;;;;;;;3.20;0.70;;;18.50;68.80;;;;;;5113431;28;20286;-69
2022/06/09 05:03:11;;;;;;;3.03;0.68;;;18.50;68.90;;;;;;5112907;28;20127;-69
2022/06/09 05:05:41;;;;;;;2.78;0.70;;;18.50;68.90;;;;;;5113164;28;20063;-69
2022/06/09 05:08:07;;;;;;;2.38;0.70;;;18.50;68.80;;;;;;5113208;28;20044;-69
2022/06/09 05:10:33;;;;;;;2.28;0.50;;;18.50;68.90;;;;;;5094971;28;20038;-69
2022/06/09 05:13:01;;;;;;;2.55;0.75;;;18.50;68.80;;;;;;5113031;28;20058;-70
2022/06/09 05:15:27;;;;;;;2.05;0.60;;;18.50;68.90;;;;;;5094977;28;20139;-69
2022/06/09 05:17:53;;;;;;;2.90;0.82;;;18.50;68.80;;;;;;5094655;28;20039;-69
2022/06/09 05:20:21;;;;;;;3.50;0.85;;;18.50;68.80;;;;;;5094930;28;20079;-69
2022/06/09 05:22:47;;;;;;;3.78;0.73;;;18.50;68.80;;;;;;5112720;28;20048;-69
2022/06/09 05:25:14;;;;;;;2.67;0.80;;;18.50;68.80;;;;;;5112805;28;20046;-69
2022/06/09 05:27:40;;;;;;;2.50;0.63;;;18.50;68.80;;;;;;5094764;28;20088;-69
2022/06/09 05:30:11;;;;;;;3.35;0.52;;;18.50;68.70;;;;;;5094423;28;20535;-69
2022/06/09 05:32:37;;;;;;;1.35;0.52;;;18.50;68.70;;;;;;5112644;28;20044;-69
2022/06/09 05:35:04;;;;;;;4.35;0.68;;;18.50;68.60;;;;;;5094403;28;20055;-69
2022/06/09 05:44:50;;;;;;;1.70;0.73;;;18.50;68.60;;;;;;5094422;28;20039;-69
2022/06/09 05:45:47;;;;;;;5.50;0.50;;;18.60;68.60;;;;;;5093284;28;20115;-67
2022/06/09 05:48:13;;;;;;;4.03;0.40;;;18.60;68.70;;;;;;5091751;28;20603;-67
2022/06/09 05:50:39;;;;;;;1.60;0.40;;;18.60;68.60;;;;;;5088187;28;20032;-67
2022/06/09 05:53:05;;;;;;;1.65;0.40;;;18.60;68.50;;;;;;5092271;28;20068;-67
2022/06/09 05:55:31;;;;;;;0.82;0.20;;;18.60;68.40;;;;;;5077118;28;20050;-67
2022/06/09 05:57:59;;;;;;;1.08;0.25;;;18.70;68.40;;;;;;5075462;28;20043;-67
2022/06/09 06:00:28;;;;;;;1.70;0.32;;;18.70;68.50;;;;;;5076186;28;20119;-65
2022/06/09 06:02:53;;;;;;;3.58;0.30;;;18.70;68.70;;;;;;5077442;28;20063;-65
2022/06/09 06:08:06;;;;;;;3.85;0.30;;;18.80;69.10;;;;;;5078108;28;20052;-67
2022/06/09 06:10:32;;;;;;;2.88;0.40;;;18.80;69.00;;;;;;5080917;28;20663;-67
2022/06/09 06:12:58;;;;;;;3.05;0.40;;;18.80;68.80;;;;;;5084386;28;20038;-68
2022/06/09 06:15:23;;;;;;;2.60;0.47;;;18.90;68.80;;;;;;5103927;28;20056;-67
2022/06/09 06:17:51;;;;;;;2.00;0.40;;;18.90;68.90;;;;;;5080275;28;20036;-73
2022/06/09 06:20:16;;;;;;;2.42;0.47;;;18.90;68.90;;;;;;5070353;28;20797;-73
2022/06/09 06:22:47;;;;;;;1.73;0.32;;;19.00;68.80;;;;;;5088908;28;20051;-71
2022/06/09 06:25:13;;;;;;;2.58;0.30;;;19.00;68.70;;;;;;5090743;28;20253;-72
2022/06/09 06:27:39;;;;;;;4.72;0.30;;;19.00;68.60;;;;;;5090447;28;20097;-72
2022/06/09 06:30:08;;;;;;;1.40;0.20;;;19.00;68.50;;;;;;5092226;28;20032;-73
2022/06/09 06:32:34;;;;;;;2.08;0.20;;;19.00;68.40;;;;;;5089710;28;20043;-71
2022/06/09 06:35:01;;;;;;;1.85;0.20;;;19.00;68.30;;;;;;5064256;28;20041;-72
2022/06/09 06:37:26;;;;;;;2.28;0.20;;;19.00;68.10;;;;;;5072804;28;20031;-72
2022/06/09 06:39:52;;;;;;;2.80;0.40;;;19.00;68.10;;;;;;5071391;28;20048;-71
2022/06/09 06:42:18;;;;;;;1.17;0.28;;;19.10;68.10;;;;;;5070293;28;20085;-72
2022/06/09 06:44:49;;;;;;;4.50;0.35;;;19.10;67.90;;;;;;5067476;28;20667;-71
2022/06/09 06:47:15;;;;;;;3.42;0.30;;;19.00;67.80;;;;;;5072516;28;20712;-70
2022/06/09 06:49:41;;;;;;;1.48;0.20;;;19.10;67.70;;;;;;5074922;28;20032;-70
2022/06/09 06:52:06;;;;;;;3.00;0.30;;;19.10;67.70;;;;;;5090584;28;20126;-70
2022/06/09 06:54:32;;;;;;;2.20;0.30;;;19.10;67.60;;;;;;5078124;27;20045;-70
2022/06/09 06:57:05;;;;;;;2.13;0.30;;;19.10;67.60;;;;;;5091076;28;20455;-70
2022/06/09 06:59:30;;;;;;;1.15;0.30;;;19.10;67.50;;;;;;5075726;28;20036;-70
2022/06/09 07:01:59;;;;;;;1.88;0.30;;;19.10;67.40;;;;;;5093860;28;20073;-70
2022/06/09 07:04:25;;;;;;;1.65;0.20;;;19.10;67.30;;;;;;5065204;28;20048;-70
2022/06/09 07:06:51;;;;;;;0.88;0.28;;;19.10;67.20;;;;;;5066254;28;20056;-70
2022/06/09 07:09:17;;;;;;;1.92;0.30;;;19.20;67.20;;;;;;5072232;28;20111;-72
2022/06/09 07:11:45;;;;;;;1.42;0.20;;;19.20;67.10;;;;;;5071487;28;20178;-72
2022/06/09 07:14:12;;;;;;;1.10;0.30;;;19.10;67.10;;;;;;5071343;28;20048;-72
2022/06/09 07:16:37;;;;;;;2.30;0.28;;;19.10;67.10;;;;;;5076856;28;20035;-72
2022/06/09 07:19:03;;;;;;;1.45;0.63;;;19.10;67.00;;;;;;5070573;28;20036;-72
2022/06/09 07:21:30;;;;;;;1.35;0.20;;;19.20;67.10;;;;;;5073628;28;20056;-72
2022/06/09 07:23:56;;;;;;;1.17;0.10;;;19.10;67.00;;;;;;5078207;28;20664;-71
2022/06/09 07:26:22;;;;;;;2.25;0.30;;;19.10;66.90;;;;;;5070611;28;20054;-72
2022/06/09 07:28:48;;;;;;;0.60;0.20;;;19.10;66.90;;;;;;5078428;28;20028;-72
2022/06/09 07:31:14;;;;;;;2.42;0.82;;;19.10;66.90;;;;;;5088926;28;20043;-75
2022/06/09 07:33:40;;;;;;;2.15;0.40;;;19.20;67.00;;;;;;5072412;28;20515;-72
2022/06/09 07:36:11;;;;;;;2.13;0.30;;;19.20;66.90;;;;;;5087505;28;20063;-71
2022/06/09 07:38:40;;;;;;;2.03;0.30;;;19.20;66.70;;;;;;5065794;28;20074;-70
2022/06/09 07:41:06;;;;;;;1.00;0.20;;;19.20;66.70;;;;;;5065441;28;20495;-72
2022/06/09 07:43:35;;;;;;;1.65;0.20;;;19.20;66.60;;;;;;5078118;28;20474;-71
2022/06/09 07:46:02;;;;;;;1.00;0.50;;;19.20;66.50;;;;;;5058371;28;20048;-72
2022/06/09 07:48:28;;;;;;;1.98;0.20;;;19.20;66.40;;;;;;5060968;28;20040;-71
2022/06/09 07:50:53;;;;;;;1.17;0.20;;;19.20;66.40;;;;;;5065652;28;20048;-73
2022/06/09 07:53:21;;;;;;;0.93;0.20;;;19.20;66.30;;;;;;5070311;28;20438;-73
2022/06/09 07:55:48;;;;;;;1.75;0.20;;;19.30;66.40;;;;;;5079907;28;20083;-74
2022/06/09 07:58:14;;;;;;;0.70;0.13;;;19.30;66.30;;;;;;5061292;28;20040;-73
2022/06/09 08:00:41;;;;;;;1.38;0.30;;;19.30;66.40;;;;;;5066668;28;20478;-70
2022/06/09 08:03:07;;;;;;;0.82;0.20;;;19.30;66.30;;;;;;5072753;28;20871;-71
2022/06/09 08:05:34;;;;;;;2.28;0.20;;;19.30;66.10;;;;;;5076419;28;20640;-73
2022/06/09 08:08:00;;;;;;;1.35;0.20;;;19.40;66.10;;;;;;5071590;28;20465;-73
2022/06/09 08:10:31;;;;;;;0.38;0.20;;;19.40;66.10;;;;;;5073917;28;20079;-74
2022/06/09 08:12:59;;;;;;;1.10;0.25;;;19.40;66.00;;;;;;5068845;28;20076;-74
2022/06/09 08:15:26;;;;;;;0.70;0.10;;;19.40;65.80;;;;;;5091472;28;20046;-71
2022/06/09 08:17:53;;;;;;;0.68;0.28;;;19.40;65.70;;;;;;5070420;28;20730;-73
2022/06/09 08:20:19;;;;;;;1.02;0.20;;;19.50;65.70;;;;;;5073071;28;20040;-72
2022/06/09 08:22:45;;;;;;;0.77;0.20;;;19.50;65.20;;;;;;5096714;28;20046;-73
2022/06/09 08:25:14;;;;;;;0.68;0.20;;;19.50;65.60;;;;;;5076122;28;20481;-72
2022/06/09 08:27:43;;;;;;;0.68;0.10;;;19.50;65.40;;;;;;5079692;28;20557;-72
2022/06/09 08:30:12;;;;;;;2.38;0.20;;;19.60;65.30;;;;;;5080821;28;20257;-72
2022/06/09 08:32:38;;;;;;;0.70;0.10;;;19.60;65.10;;;;;;5074279;28;20040;-71
2022/06/09 08:35:11;;;;;;;0.98;0.10;;;19.70;65.00;;;;;;5073131;28;20040;-73
2022/06/09 08:37:37;;;;;;;0.63;0.20;;;19.70;64.80;;;;;;5082303;28;20043;-72
2022/06/09 08:40:05;;;;;;;1.30;0.20;;;19.80;64.70;;;;;;5090900;28;20040;-74
2022/06/09 08:45:18;;;;;;;1.23;0.20;;;19.90;64.40;;;;;;5071680;27;20449;-71
2022/06/09 08:47:49;;;;;;;1.75;0.20;;;20.00;63.90;;;;;;5059899;28;20366;-69
2022/06/09 08:50:23;;;;;;;1.60;0.22;;;20.10;63.70;;;;;;5068047;28;20142;-70
2022/06/09 09:06:39;;;;;;;0.93;0.20;;;20.40;62.50;;;;;;5092434;27;20453;-70
2022/06/09 09:09:27;;;;;;;1.25;0.20;;;20.60;62.20;;;;;;5091794;28;20378;-71
2022/06/09 09:12:19;;;;;;;0.45;0.13;;;20.90;61.60;;;;;;5086760;28;20516;-71
2022/06/09 09:17:57;;;;;;;2.28;0.20;;;21.00;61.10;;;;;;5052588;27;20992;-70
2022/06/09 09:20:30;;;;;;;1.38;0.32;;;21.20;60.40;;;;;;5043071;28;20117;-69
2022/06/09 09:26:02;;;;;;;1.02;0.15;;;21.30;60.00;;;;;;5094030;27;20792;-70
2022/06/09 09:28:51;;;;;;;1.27;0.20;;;21.30;59.90;;;;;;5106365;28;20047;-70
2022/06/09 09:34:02;;;;;;;1.13;0.30;;;21.10;60.00;;;;;;5096373;27;20422;-70
2022/06/09 09:36:35;;;;;;;1.65;0.20;;;21.30;59.80;;;;;;5107488;28;20281;-71
2022/06/09 09:39:15;;;;;;;0.20;0.10;;;21.20;59.90;;;;;;5093091;28;20820;-70
2022/06/09 09:41:41;;;;;;;0.85;0.20;;;21.20;60.00;;;;;;5092214;28;20081;-71
2022/06/09 09:44:18;;;;;;;0.43;0.10;;;21.30;59.80;;;;;;5093542;28;20352;-71
2022/06/09 09:46:49;;;;;;;1.00;0.10;;;21.30;59.80;;;;;;5096040;28;20043;-71
2022/06/09 09:49:41;;;;;;;1.70;0.25;;;21.40;59.60;;;;;;5100423;28;20114;-70
2022/06/09 09:52:46;;;;;;;0.43;0.20;;;21.40;59.50;;;;;;5091082;28;20086;-70
2022/06/09 09:55:34;;;;;;;0.68;0.10;;;21.40;59.30;;;;;;5093774;28;20036;-69
2022/06/09 10:00:58;;;;;;;1.40;0.20;;;21.40;59.50;;;;;;5113455;27;1156933;-69
2022/06/09 10:09:31;;;;;;;2.30;0.15;;;21.40;60.00;;;;;;5137063;27;20576;-70
2022/06/09 10:12:08;;;;;;;1.33;0.10;;;21.50;60.20;;;;;;5132154;27;20041;-71
2022/06/09 10:14:42;;;;;;;1.70;0.17;;;21.60;60.30;;;;;;5135320;27;20035;-69
2022/06/09 10:17:33;;;;;;;2.85;0.20;;;21.60;60.30;;;;;;5134873;27;20030;-69
2022/06/09 10:20:15;;;;;;;1.27;0.20;;;21.70;60.30;;;;;;5132607;27;20034;-72
2022/06/09 10:22:53;;;;;;;2.10;0.20;;;21.70;60.20;;;;;;5141212;27;20042;-71
2022/06/09 10:25:29;;;;;;;3.45;0.20;;;21.80;60.30;;;;;;5134192;27;20294;-72
2022/06/09 10:28:01;;;;;;;2.97;0.20;;;21.80;60.30;;;;;;5140844;27;20035;-70
2022/06/09 10:30:35;;;;;;;3.20;0.30;;;21.90;60.30;;;;;;5146246;27;20045;-70
2022/06/09 10:35:49;;;;;;;1.63;0.10;;;21.90;60.20;;;;;;5106892;27;20449;-77
2022/06/09 10:40:58;;;;;;;1.55;0.10;;;21.90;60.00;;;;;;5095140;27;20465;-72
2022/06/09 10:43:46;;;;;;;3.03;0.10;;;22.00;59.80;;;;;;5095785;28;20504;-68
2022/06/09 10:46:36;;;;;;;6.20;0.28;;;22.00;59.80;;;;;;5100819;28;20328;-68
2022/06/09 11:00:48;;;;;;;3.80;0.10;;;22.00;59.90;;;;;;5085073;27;20402;-69
2022/06/09 11:03:20;;;;;;;0.50;0.10;;;22.00;59.50;;;;;;5064204;28;20075;-69
2022/06/09 11:08:56;;;;;;;2.80;0.20;;;22.00;59.40;;;;;;5108172;27;20397;-69
2022/06/09 11:14:41;;;;;;;0.55;0.05;;;22.00;59.50;;;;;;5094788;27;20379;-68
2022/06/09 11:20:11;;;;;;;4.40;0.13;;;21.90;59.60;;;;;;5058602;27;20442;-70
2022/06/09 11:28:22;;;;;;;1.42;0.10;;;21.90;59.80;;;;;;5101811;27;20424;-68
2022/06/09 11:31:15;;;;;;;1.25;0.15;;;21.90;60.90;;;;;;5073935;28;20602;-68
2022/06/09 11:36:36;;;;;;;0.68;0.10;;;22.00;60.50;;;;;;5102462;27;20470;-68
2022/06/09 11:44:36;;;;;;;2.75;0.20;;;22.00;60.80;;;;;;5105086;27;20456;-71
2022/06/09 11:47:10;;;;;;;1.75;0.10;;;22.00;61.00;;;;;;5119392;27;20039;-72
2022/06/09 11:49:42;;;;;;;3.20;0.20;;;22.00;61.10;;;;;;5104854;27;20043;-71
2022/06/09 11:52:14;;;;;;;2.05;0.10;;;22.00;61.20;;;;;;5109985;27;20040;-68
2022/06/09 11:55:00;;;;;;;2.90;0.17;;;21.90;61.20;;;;;;5109764;27;20035;-71
2022/06/09 12:03:41;;;;;;;4.38;0.40;;;22.00;61.30;;;;;;5083064;27;20475;-70
2022/06/09 12:09:06;;;;;;;3.30;0.63;;;22.00;61.00;;;;;;5088884;27;20456;-71
2022/06/09 12:11:51;;;;;;;1.98;0.20;;;22.10;60.90;;;;;;5081294;28;20048;-70
2022/06/09 12:14:22;;;;;;;2.45;0.30;;;22.10;60.90;;;;;;5088206;28;20036;-72
2022/06/09 12:17:28;;;;;;;6.53;0.10;;;22.20;61.00;;;;;;5082622;28;20112;-69
2022/06/09 12:19:57;;;;;;;4.93;0.10;;;22.20;61.10;;;;;;5100943;27;20139;-74
2022/06/09 12:25:32;;;;;;;1.88;0.30;;;22.30;61.30;;;;;;5105120;27;20893;-73
2022/06/09 12:27:58;;;;;;;1.10;0.30;;;22.40;61.10;;;;;;5123583;27;20054;-74
2022/06/09 12:33:27;;;;;;;2.88;0.38;;;22.40;61.00;;;;;;5091907;27;20485;-71
2022/06/09 12:38:50;;;;;;;5.53;0.20;;;22.50;60.40;;;;;;5084131;27;20479;-67
2022/06/09 12:47:15;;;;;;;4.90;0.40;;;22.50;60.10;;;;;;5047399;28;20460;-70
2022/06/09 12:49:48;;;;;;;7.93;0.68;;;22.50;60.00;;;;;;5067049;28;20915;-71
2022/06/09 12:55:16;;;;;;;12.10;0.82;;;22.50;60.50;;;;;;5098049;27;20474;-69
2022/06/09 12:57:45;;;;;;;8.80;0.70;;;22.60;60.40;;;;;;5088211;28;20069;-69
2022/06/09 13:02:55;;;;;;;7.25;0.50;;;22.60;60.30;;;;;;5119668;27;1165788;-70
2022/06/09 13:08:04;;;;;;;4.75;0.95;;;22.60;60.00;;;;;;5131942;27;1165212;-72
2022/06/09 13:10:33;;;;;;;5.70;0.38;;;22.40;57.80;;;;;;5111627;27;20043;-70
2022/06/09 13:13:18;;;;;;;5.33;0.47;;;22.30;58.30;;;;;;5115837;27;20382;-72
2022/06/09 13:16:02;;;;;;;2.83;0.40;;;22.20;58.40;;;;;;5130797;27;20050;-71
2022/06/09 13:21:25;;;;;;;5.70;0.38;;;22.20;58.20;;;;;;5094613;27;21047;-72
2022/06/09 13:23:59;;;;;;;3.75;0.65;;;22.30;58.10;;;;;;5078341;28;20093;-71
2022/06/09 13:26:35;;;;;;;5.00;0.43;;;22.40;58.00;;;;;;5071739;28;20108;-72
2022/06/09 13:29:13;;;;;;;4.45;0.50;;;22.40;57.90;;;;;;5079876;28;20035;-72
2022/06/09 13:31:42;;;;;;;3.83;0.30;;;22.40;57.90;;;;;;5087098;28;20043;-72
2022/06/09 13:42:28;;;;;;;1.75;0.20;;;22.60;57.00;;;;;;5068727;27;20940;-71
2022/06/09 13:47:36;;;;;;;2.90;0.20;;;22.60;56.70;;;;;;5126938;27;1224520;-71
2022/06/09 13:52:48;;;;;;;3.80;0.35;;;22.60;56.50;;;;;;5079323;28;20787;-69
2022/06/09 13:55:20;;;;;;;1.63;0.20;;;22.60;56.40;;;;;;5081122;28;20071;-69
2022/06/09 13:57:49;;;;;;;3.13;0.20;;;22.70;56.30;;;;;;5080172;28;20032;-70
2022/06/09 14:00:22;;;;;;;2.38;0.20;;;22.70;55.90;;;;;;5079901;28;20040;-72
2022/06/09 14:03:07;;;;;;;2.92;0.30;;;22.70;55.80;;;;;;5079587;28;20044;-72
2022/06/09 14:05:36;;;;;;;2.10;0.20;;;22.70;55.60;;;;;;5079755;28;20033;-72
2022/06/09 14:08:02;;;;;;;1.77;0.20;;;22.70;55.30;;;;;;5081506;28;20067;-72
2022/06/09 14:10:29;;;;;;;1.77;0.20;;;22.70;55.20;;;;;;5091211;28;20119;-72
2022/06/09 14:12:55;;;;;;;2.47;0.20;;;22.70;55.00;;;;;;5078796;28;20032;-72
2022/06/09 14:15:22;;;;;;;3.17;0.20;;;22.70;54.70;;;;;;5079820;28;20757;-72
2022/06/09 14:17:51;;;;;;;2.00;0.10;;;22.70;54.50;;;;;;5078297;28;20040;-73
2022/06/09 14:20:20;;;;;;;3.05;0.30;;;22.70;54.30;;;;;;5081287;28;20038;-74
2022/06/09 14:22:46;;;;;;;1.45;0.10;;;22.70;54.00;;;;;;5062055;28;20622;-73
2022/06/09 14:25:11;;;;;;;7.57;0.20;;;22.70;54.00;;;;;;5078989;28;20115;-73
2022/06/09 14:27:38;;;;;;;1.05;0.13;;;22.60;54.20;;;;;;5080742;28;20527;-72
2022/06/09 14:30:07;;;;;;;8.07;0.45;;;22.60;54.30;;;;;;5082061;28;20643;-73
2022/06/09 14:32:34;;;;;;;1.63;0.32;;;22.70;54.30;;;;;;5081648;28;20051;-70
2022/06/09 14:35:00;;;;;;;2.70;0.20;;;22.70;54.10;;;;;;5082825;28;20033;-72
2022/06/09 14:37:25;;;;;;;2.10;0.30;;;22.70;53.90;;;;;;5081952;28;20036;-72
2022/06/09 14:39:51;;;;;;;3.70;0.20;;;22.70;53.70;;;;;;5081182;28;20043;-72
2022/06/09 14:42:18;;;;;;;1.85;0.20;;;22.70;53.50;;;;;;5082113;28;20036;-71
2022/06/09 14:44:45;;;;;;;0.80;0.10;;;22.80;53.30;;;;;;5081165;28;20067;-70
2022/06/09 14:47:14;;;;;;;2.22;0.22;;;22.80;53.20;;;;;;5080640;28;20086;-72
2022/06/09 14:49:40;;;;;;;1.73;0.25;;;22.80;53.10;;;;;;5081998;28;20048;-70
2022/06/09 14:52:06;;;;;;;4.68;0.40;;;22.80;53.10;;;;;;5081580;28;20059;-71
2022/06/09 14:54:32;;;;;;;1.98;0.30;;;22.90;53.10;;;;;;5080682;28;20041;-71
2022/06/09 14:57:00;;;;;;;1.35;0.10;;;22.80;52.90;;;;;;5080744;28;20051;-71
2022/06/09 14:59:28;;;;;;;1.35;0.20;;;22.90;53.00;;;;;;5081779;28;20593;-69
2022/06/09 15:01:55;;;;;;;2.60;0.25;;;22.90;53.00;;;;;;5079876;28;20476;-72
2022/06/09 15:04:21;;;;;;;17.58;1.50;;;22.90;53.00;;;;;;5067901;28;20047;-72
2022/06/09 15:06:47;;;;;;;13.63;1.13;;;22.90;52.70;;;;;;5067736;28;20505;-72
2022/06/09 15:09:14;;;;;;;9.77;1.02;;;23.00;52.60;;;;;;5066393;28;20123;-73
2022/06/09 15:11:40;;;;;;;10.73;1.00;;;22.90;52.40;;;;;;5066264;28;20517;-72
2022/06/09 15:14:06;;;;;;;11.32;1.27;;;22.90;52.40;;;;;;5067710;28;20115;-71
2022/06/09 15:16:32;;;;;;;6.75;1.48;;;22.80;52.60;;;;;;5067796;28;20112;-71
2022/06/09 15:18:58;;;;;;;7.32;0.77;;;22.80;52.80;;;;;;5069682;28;20124;-72
2022/06/09 15:21:25;;;;;;;6.20;0.60;;;22.70;52.90;;;;;;5068724;28;20056;-72
2022/06/09 15:23:51;;;;;;;3.85;0.55;;;22.60;53.00;;;;;;5067653;28;20543;-72
2022/06/09 15:26:19;;;;;;;5.15;0.93;;;22.50;53.10;;;;;;5070070;28;20037;-72
2022/06/09 15:28:47;;;;;;;10.70;0.65;;;22.50;53.30;;;;;;5067635;28;20033;-72
2022/06/09 15:31:13;;;;;;;8.75;0.77;;;22.40;53.40;;;;;;5070369;28;20040;-73
2022/06/09 15:33:39;;;;;;;5.72;0.65;;;22.40;53.50;;;;;;5068978;28;20363;-72
2022/06/09 15:36:05;;;;;;;8.02;0.70;;;22.30;53.50;;;;;;5070363;28;20037;-72